KATL

Hartsfield - Jackson Atlanta International Airport

Atlanta, Georgia, USA
METAR KATL 110252Z 34006KT 7SM -RA BKN008 OVC050 04/03 A3018 RMK AO2 SLP224 CIG 005V011 P0001 60003 T00440028 53008
Observed Flight Rules
Dec-11 @ 02:52 UTC (43 minutes ago) Instrument Flight Rules
Wind Visibility Clouds Conditions
340° at 6 knots 7 miles
  • Broken at 800' AGL
  • Overcast at 5,000' AGL
  • Light Rain
Temperatures Readings Precipitation
Current 4°C / 39°F
Dewpoint 3°C / 37°F
Humidity 93%
Altimeter 30.18" Hg
Pressure 1022.4 hPa
Elevation 296
Current Rain 0.01
METAR KATL 110252Z 34006KT 7SM -RA BKN008 OVC050 04/03 A3018 RMK AO2 SLP224 CIG 005V011 P0001 60003 T00440028 53008
Observed Flight Rules
Dec-11 @ 02:52 UTC
(43 minutes ago)
IFR
Wind Visibility
340° at 6 knots 7 miles
Clouds
  • Broken at 800' AGL
  • Overcast at 5,000' AGL
Conditions
  • Light Rain
Temperature Dewpoint
4°C / 39°F 3°C / 37°F
Humidity Altimeter Pressure
93% 30.18" Hg 1022.4 hPa
Current Rain
0.01